Estación Meteorológica Peña el Pijo (Robertgarden) [ 07/21/18 15:49:32 CEST ]

Fecha Hora Presion(HPa) Temp (°C) Humedad % Rocio (°C) Viento ( m/s) Direccion Lluvia 1Hora(mm) Lluvia 24H(mm) LLuvia Total(mm)
2018-Jan-25 01:01:34 1014.300 2.6 69 -2.5         62.16
2018-Jan-25 02:01:37 1013.500 1.6 71 -3.1         62.16
2018-Jan-25 03:01:40 1013.100 1.6 71 -3.1         62.16
2018-Jan-25 04:01:42 1012.700 0.9 72 -3.6         62.16
2018-Jan-25 05:03:24 1012.000 0.7 72 -3.8         62.16
2018-Jan-25 06:01:59 1011.600 -0.6 73 -4.9         62.16
2018-Jan-25 07:01:57 1011.800 -0.6 76 -4.3         62.16
2018-Jan-25 08:02:01 1011.600 -1.1 76 -4.8         62.16
2018-Jan-25 09:01:31 1011.400 -1.2 78 -4.6         62.16
2018-Jan-25 10:01:46 1011.000 5.3 77 1.6         62.16
2018-Jan-25 11:01:50 1010.400 11.4 57 3.1         62.16
2018-Jan-25 12:02:06 1009.500 16.3 42 3.3         62.16
2018-Jan-25 13:01:39 1008.300 18.1 31 0.7         62.16
2018-Jan-25 14:01:43 1007.400 18.6 30 0.7 2.7 NW     62.16
2018-Jan-25 15:01:42 1007.000 17.8 29 -0.5 2.2 W     62.16
2018-Jan-25 16:01:54 1006.800 17.2 33 0.7 3.7 WSW     62.16
2018-Jan-25 17:01:42 1006.400 14.2 27 -4.7         62.16
2018-Jan-25 18:01:54 1006.300 11.6 32 -4.6         62.16
2018-Jan-25 19:01:56 1006.300 9.5 50 -0.4         62.16
2018-Jan-25 20:01:49 1006.400 7.8 61 0.7         62.16
2018-Jan-25 21:01:44 1005.600 7.5 67 1.8         62.16
2018-Jan-25 22:01:56 1005.200 7.8 69 2.5         62.16
2018-Jan-25 23:01:42 1005.100 6.9 70 1.8         62.16

Temperatura Máxima:18°    Temperatura Mínima:-1°
Presión Máxima:1014.300 Hpa    Presión Mínima:1005.100 Hpa


Volver